sensor_id;sensor_type;location;lat;lon;timestamp;P1;durP1;ratioP1;P2;durP2;ratioP2
20623;SDS011;10471;42.736;23.346;2023-02-22T00:00:36;31.00;;;15.23;;
20623;SDS011;10471;42.736;23.346;2023-02-22T00:03:12;34.23;;;15.60;;
20623;SDS011;10471;42.736;23.346;2023-02-22T00:05:43;50.70;;;20.67;;
20623;SDS011;10471;42.736;23.346;2023-02-22T00:08:17;33.53;;;13.93;;
20623;SDS011;10471;42.736;23.346;2023-02-22T00:10:44;28.17;;;13.33;;
20623;SDS011;10471;42.736;23.346;2023-02-22T00:13:10;22.07;;;11.83;;
20623;SDS011;10471;42.736;23.346;2023-02-22T00:15:38;25.30;;;12.57;;
20623;SDS011;10471;42.736;23.346;2023-02-22T00:18:08;36.00;;;16.73;;
20623;SDS011;10471;42.736;23.346;2023-02-22T00:20:37;39.43;;;19.83;;
20623;SDS011;10471;42.736;23.346;2023-02-22T00:23:03;66.53;;;31.53;;
20623;SDS011;10471;42.736;23.346;2023-02-22T00:25:34;81.03;;;34.23;;
20623;SDS011;10471;42.736;23.346;2023-02-22T00:28:00;88.30;;;38.43;;
20623;SDS011;10471;42.736;23.346;2023-02-22T00:30:27;92.07;;;40.23;;
20623;SDS011;10471;42.736;23.346;2023-02-22T00:32:56;96.50;;;40.17;;
20623;SDS011;10471;42.736;23.346;2023-02-22T00:35:23;94.73;;;41.37;;
20623;SDS011;10471;42.736;23.346;2023-02-22T00:37:51;85.73;;;37.57;;
20623;SDS011;10471;42.736;23.346;2023-02-22T00:40:22;75.20;;;31.70;;
20623;SDS011;10471;42.736;23.346;2023-02-22T00:42:49;66.90;;;29.33;;
20623;SDS011;10471;42.736;23.346;2023-02-22T00:45:16;57.13;;;26.30;;
20623;SDS011;10471;42.736;23.346;2023-02-22T00:47:42;45.40;;;20.80;;
20623;SDS011;10471;42.736;23.346;2023-02-22T00:50:08;41.97;;;20.30;;
20623;SDS011;10471;42.736;23.346;2023-02-22T00:52:34;45.60;;;20.93;;
20623;SDS011;10471;42.736;23.346;2023-02-22T00:55:00;43.63;;;19.67;;
20623;SDS011;10471;42.736;23.346;2023-02-22T00:57:26;40.30;;;19.17;;
20623;SDS011;10471;42.736;23.346;2023-02-22T00:59:52;37.73;;;18.33;;
20623;SDS011;10471;42.736;23.346;2023-02-22T01:02:17;39.27;;;19.53;;
20623;SDS011;10471;42.736;23.346;2023-02-22T01:04:43;40.20;;;18.77;;
20623;SDS011;10471;42.736;23.346;2023-02-22T01:07:09;39.43;;;18.63;;
20623;SDS011;10471;42.736;23.346;2023-02-22T01:09:34;40.63;;;18.17;;
20623;SDS011;10471;42.736;23.346;2023-02-22T01:12:00;43.20;;;19.40;;
20623;SDS011;10471;42.736;23.346;2023-02-22T01:14:26;42.77;;;19.27;;
20623;SDS011;10471;42.736;23.346;2023-02-22T01:16:52;44.33;;;19.40;;
20623;SDS011;10471;42.736;23.346;2023-02-22T01:19:19;41.80;;;20.07;;
20623;SDS011;10471;42.736;23.346;2023-02-22T01:21:46;36.67;;;19.10;;
20623;SDS011;10471;42.736;23.346;2023-02-22T01:24:12;39.33;;;19.37;;
20623;SDS011;10471;42.736;23.346;2023-02-22T01:26:40;40.57;;;20.40;;
20623;SDS011;10471;42.736;23.346;2023-02-22T01:29:14;37.17;;;19.37;;
20623;SDS011;10471;42.736;23.346;2023-02-22T01:31:41;38.37;;;19.60;;
20623;SDS011;10471;42.736;23.346;2023-02-22T01:34:10;43.07;;;20.47;;
20623;SDS011;10471;42.736;23.346;2023-02-22T01:36:37;43.23;;;21.20;;
20623;SDS011;10471;42.736;23.346;2023-02-22T01:39:04;44.90;;;23.57;;
20623;SDS011;10471;42.736;23.346;2023-02-22T01:41:30;44.53;;;21.43;;
20623;SDS011;10471;42.736;23.346;2023-02-22T01:43:55;44.20;;;21.47;;
20623;SDS011;10471;42.736;23.346;2023-02-22T01:46:22;47.53;;;24.03;;
20623;SDS011;10471;42.736;23.346;2023-02-22T01:51:24;55.60;;;25.93;;
20623;SDS011;10471;42.736;23.346;2023-02-22T01:53:56;70.20;;;28.97;;
20623;SDS011;10471;42.736;23.346;2023-02-22T01:56:26;60.97;;;29.83;;
20623;SDS011;10471;42.736;23.346;2023-02-22T01:58:58;75.13;;;31.03;;
20623;SDS011;10471;42.736;23.346;2023-02-22T02:01:27;62.90;;;28.70;;
20623;SDS011;10471;42.736;23.346;2023-02-22T02:03:55;59.57;;;29.43;;
20623;SDS011;10471;42.736;23.346;2023-02-22T02:06:23;81.43;;;33.80;;
20623;SDS011;10471;42.736;23.346;2023-02-22T02:09:12;88.30;;;35.60;;
20623;SDS011;10471;42.736;23.346;2023-02-22T02:11:41;84.20;;;33.07;;
20623;SDS011;10471;42.736;23.346;2023-02-22T02:14:07;83.73;;;35.10;;
20623;SDS011;10471;42.736;23.346;2023-02-22T02:16:44;77.57;;;31.63;;
20623;SDS011;10471;42.736;23.346;2023-02-22T02:19:19;75.03;;;32.70;;
20623;SDS011;10471;42.736;23.346;2023-02-22T02:22:11;86.57;;;34.43;;
20623;SDS011;10471;42.736;23.346;2023-02-22T02:24:50;62.07;;;28.50;;
20623;SDS011;10471;42.736;23.346;2023-02-22T02:27:20;80.33;;;32.83;;
20623;SDS011;10471;42.736;23.346;2023-02-22T02:35:28;72.97;;;32.23;;
20623;SDS011;10471;42.736;23.346;2023-02-22T02:38:21;61.40;;;30.40;;
20623;SDS011;10471;42.736;23.346;2023-02-22T02:46:22;62.27;;;30.60;;
20623;SDS011;10471;42.736;23.346;2023-02-22T02:48:55;55.00;;;23.37;;
20623;SDS011;10471;42.736;23.346;2023-02-22T02:51:26;37.03;;;18.87;;
20623;SDS011;10471;42.736;23.346;2023-02-22T02:53:54;36.53;;;18.20;;
20623;SDS011;10471;42.736;23.346;2023-02-22T02:56:21;47.43;;;22.37;;
20623;SDS011;10471;42.736;23.346;2023-02-22T02:58:51;45.80;;;22.73;;
20623;SDS011;10471;42.736;23.346;2023-02-22T03:11:55;38.17;;;18.67;;
20623;SDS011;10471;42.736;23.346;2023-02-22T03:14:29;34.63;;;16.27;;
20623;SDS011;10471;42.736;23.346;2023-02-22T03:20:19;36.87;;;17.50;;
20623;SDS011;10471;42.736;23.346;2023-02-22T03:23:01;42.63;;;21.47;;
20623;SDS011;10471;42.736;23.346;2023-02-22T03:25:35;51.57;;;24.50;;
20623;SDS011;10471;42.736;23.346;2023-02-22T03:28:06;49.60;;;23.60;;
20623;SDS011;10471;42.736;23.346;2023-02-22T03:30:36;54.00;;;25.90;;
20623;SDS011;10471;42.736;23.346;2023-02-22T03:33:29;54.07;;;24.10;;
20623;SDS011;10471;42.736;23.346;2023-02-22T03:36:06;52.73;;;24.17;;
20623;SDS011;10471;42.736;23.346;2023-02-22T03:38:37;43.10;;;22.50;;
20623;SDS011;10471;42.736;23.346;2023-02-22T03:41:05;49.30;;;24.57;;
20623;SDS011;10471;42.736;23.346;2023-02-22T03:43:35;45.90;;;22.57;;
20623;SDS011;10471;42.736;23.346;2023-02-22T03:46:04;50.67;;;21.97;;
20623;SDS011;10471;42.736;23.346;2023-02-22T03:48:37;51.20;;;23.53;;
20623;SDS011;10471;42.736;23.346;2023-02-22T03:51:18;51.33;;;23.43;;
20623;SDS011;10471;42.736;23.346;2023-02-22T03:53:45;52.47;;;25.00;;
20623;SDS011;10471;42.736;23.346;2023-02-22T03:56:12;378.43;;;164.17;;
20623;SDS011;10471;42.736;23.346;2023-02-22T03:58:44;103.87;;;44.87;;
20623;SDS011;10471;42.736;23.346;2023-02-22T04:01:13;96.03;;;42.57;;
20623;SDS011;10471;42.736;23.346;2023-02-22T04:03:39;70.10;;;33.73;;
20623;SDS011;10471;42.736;23.346;2023-02-22T04:06:06;56.53;;;27.37;;
20623;SDS011;10471;42.736;23.346;2023-02-22T04:08:32;65.93;;;30.10;;
20623;SDS011;10471;42.736;23.346;2023-02-22T04:10:57;88.80;;;36.00;;
20623;SDS011;10471;42.736;23.346;2023-02-22T04:13:23;81.67;;;36.13;;
20623;SDS011;10471;42.736;23.346;2023-02-22T04:15:48;66.50;;;32.07;;
20623;SDS011;10471;42.736;23.346;2023-02-22T04:18:14;69.67;;;30.30;;
20623;SDS011;10471;42.736;23.346;2023-02-22T04:20:39;68.43;;;29.67;;
20623;SDS011;10471;42.736;23.346;2023-02-22T04:23:04;57.23;;;28.47;;
20623;SDS011;10471;42.736;23.346;2023-02-22T04:25:30;67.03;;;29.53;;
20623;SDS011;10471;42.736;23.346;2023-02-22T04:27:55;72.17;;;31.70;;
20623;SDS011;10471;42.736;23.346;2023-02-22T04:30:21;66.63;;;28.97;;
20623;SDS011;10471;42.736;23.346;2023-02-22T04:32:47;68.57;;;32.50;;
20623;SDS011;10471;42.736;23.346;2023-02-22T04:35:13;71.57;;;30.97;;
20623;SDS011;10471;42.736;23.346;2023-02-22T04:37:38;66.17;;;29.23;;
20623;SDS011;10471;42.736;23.346;2023-02-22T04:40:04;59.63;;;28.00;;
20623;SDS011;10471;42.736;23.346;2023-02-22T04:42:33;58.97;;;27.77;;
20623;SDS011;10471;42.736;23.346;2023-02-22T04:44:59;59.27;;;28.40;;
20623;SDS011;10471;42.736;23.346;2023-02-22T04:47:25;57.90;;;26.30;;
20623;SDS011;10471;42.736;23.346;2023-02-22T04:49:50;50.77;;;24.27;;
20623;SDS011;10471;42.736;23.346;2023-02-22T04:52:16;55.10;;;25.40;;
20623;SDS011;10471;42.736;23.346;2023-02-22T04:54:41;55.17;;;25.20;;
20623;SDS011;10471;42.736;23.346;2023-02-22T04:57:07;52.73;;;25.63;;
20623;SDS011;10471;42.736;23.346;2023-02-22T04:59:32;50.40;;;25.67;;
20623;SDS011;10471;42.736;23.346;2023-02-22T05:01:57;60.93;;;28.13;;
20623;SDS011;10471;42.736;23.346;2023-02-22T05:04:24;60.90;;;31.70;;
20623;SDS011;10471;42.736;23.346;2023-02-22T05:06:50;63.60;;;30.63;;
20623;SDS011;10471;42.736;23.346;2023-02-22T05:09:15;60.23;;;29.07;;
20623;SDS011;10471;42.736;23.346;2023-02-22T05:11:41;58.17;;;29.13;;
20623;SDS011;10471;42.736;23.346;2023-02-22T05:14:06;59.27;;;29.60;;
20623;SDS011;10471;42.736;23.346;2023-02-22T05:16:32;102.23;;;48.80;;
20623;SDS011;10471;42.736;23.346;2023-02-22T05:18:57;120.83;;;58.63;;
20623;SDS011;10471;42.736;23.346;2023-02-22T05:21:22;125.20;;;58.13;;
20623;SDS011;10471;42.736;23.346;2023-02-22T05:23:48;123.27;;;52.83;;
20623;SDS011;10471;42.736;23.346;2023-02-22T05:26:13;132.90;;;58.90;;
20623;SDS011;10471;42.736;23.346;2023-02-22T05:28:39;141.67;;;62.53;;
20623;SDS011;10471;42.736;23.346;2023-02-22T05:31:04;132.20;;;57.53;;
20623;SDS011;10471;42.736;23.346;2023-02-22T05:33:31;131.80;;;56.67;;
20623;SDS011;10471;42.736;23.346;2023-02-22T05:35:56;105.13;;;46.83;;
20623;SDS011;10471;42.736;23.346;2023-02-22T05:38:22;103.83;;;46.70;;
20623;SDS011;10471;42.736;23.346;2023-02-22T05:40:47;124.10;;;50.40;;
20623;SDS011;10471;42.736;23.346;2023-02-22T05:43:13;110.07;;;46.90;;
20623;SDS011;10471;42.736;23.346;2023-02-22T05:45:39;103.37;;;46.67;;
20623;SDS011;10471;42.736;23.346;2023-02-22T05:48:05;93.90;;;44.37;;
20623;SDS011;10471;42.736;23.346;2023-02-22T05:50:31;86.17;;;41.27;;
20623;SDS011;10471;42.736;23.346;2023-02-22T05:52:57;84.80;;;38.57;;
20623;SDS011;10471;42.736;23.346;2023-02-22T05:55:22;81.70;;;37.53;;
20623;SDS011;10471;42.736;23.346;2023-02-22T05:57:48;75.50;;;35.00;;
20623;SDS011;10471;42.736;23.346;2023-02-22T06:00:15;66.10;;;31.87;;
20623;SDS011;10471;42.736;23.346;2023-02-22T06:02:43;70.73;;;34.53;;
20623;SDS011;10471;42.736;23.346;2023-02-22T06:05:09;88.30;;;42.67;;
20623;SDS011;10471;42.736;23.346;2023-02-22T06:07:34;91.80;;;45.17;;
20623;SDS011;10471;42.736;23.346;2023-02-22T06:09:59;96.07;;;43.53;;
20623;SDS011;10471;42.736;23.346;2023-02-22T06:12:26;83.80;;;40.30;;
20623;SDS011;10471;42.736;23.346;2023-02-22T06:14:51;92.67;;;42.13;;
20623;SDS011;10471;42.736;23.346;2023-02-22T06:17:16;95.67;;;44.10;;
20623;SDS011;10471;42.736;23.346;2023-02-22T06:19:42;109.70;;;51.33;;
20623;SDS011;10471;42.736;23.346;2023-02-22T06:22:10;135.43;;;60.87;;
20623;SDS011;10471;42.736;23.346;2023-02-22T06:24:41;145.23;;;66.37;;
20623;SDS011;10471;42.736;23.346;2023-02-22T06:27:07;122.27;;;57.23;;
20623;SDS011;10471;42.736;23.346;2023-02-22T06:29:32;122.37;;;54.53;;
20623;SDS011;10471;42.736;23.346;2023-02-22T06:31:58;171.70;;;82.87;;
20623;SDS011;10471;42.736;23.346;2023-02-22T06:34:23;115.37;;;52.93;;
20623;SDS011;10471;42.736;23.346;2023-02-22T06:36:49;107.23;;;46.93;;
20623;SDS011;10471;42.736;23.346;2023-02-22T06:39:14;88.70;;;40.07;;
20623;SDS011;10471;42.736;23.346;2023-02-22T06:41:41;75.50;;;36.87;;
20623;SDS011;10471;42.736;23.346;2023-02-22T06:44:07;71.73;;;33.33;;
20623;SDS011;10471;42.736;23.346;2023-02-22T06:46:34;63.80;;;32.33;;
20623;SDS011;10471;42.736;23.346;2023-02-22T06:49:00;73.00;;;34.10;;
20623;SDS011;10471;42.736;23.346;2023-02-22T06:51:26;79.93;;;36.83;;
20623;SDS011;10471;42.736;23.346;2023-02-22T06:53:52;70.73;;;32.73;;
20623;SDS011;10471;42.736;23.346;2023-02-22T06:56:17;57.67;;;29.80;;
20623;SDS011;10471;42.736;23.346;2023-02-22T06:58:43;52.30;;;25.37;;
20623;SDS011;10471;42.736;23.346;2023-02-22T07:01:09;41.90;;;23.13;;
20623;SDS011;10471;42.736;23.346;2023-02-22T07:03:34;47.40;;;24.37;;
20623;SDS011;10471;42.736;23.346;2023-02-22T07:06:00;55.40;;;30.70;;
20623;SDS011;10471;42.736;23.346;2023-02-22T07:08:26;57.10;;;30.80;;
20623;SDS011;10471;42.736;23.346;2023-02-22T07:10:52;47.43;;;26.07;;
20623;SDS011;10471;42.736;23.346;2023-02-22T07:13:19;50.33;;;29.63;;
20623;SDS011;10471;42.736;23.346;2023-02-22T07:15:44;43.53;;;24.23;;
20623;SDS011;10471;42.736;23.346;2023-02-22T07:18:10;47.33;;;27.27;;
20623;SDS011;10471;42.736;23.346;2023-02-22T07:20:36;49.63;;;25.03;;
20623;SDS011;10471;42.736;23.346;2023-02-22T07:23:02;40.07;;;21.50;;
20623;SDS011;10471;42.736;23.346;2023-02-22T07:25:29;40.33;;;21.53;;
20623;SDS011;10471;42.736;23.346;2023-02-22T07:27:54;38.17;;;19.50;;
20623;SDS011;10471;42.736;23.346;2023-02-22T07:30:21;38.20;;;19.90;;
20623;SDS011;10471;42.736;23.346;2023-02-22T07:32:49;38.70;;;20.13;;
20623;SDS011;10471;42.736;23.346;2023-02-22T07:37:42;30.30;;;18.47;;
20623;SDS011;10471;42.736;23.346;2023-02-22T07:40:08;33.27;;;19.20;;
20623;SDS011;10471;42.736;23.346;2023-02-22T07:42:48;33.37;;;18.67;;
20623;SDS011;10471;42.736;23.346;2023-02-22T07:45:14;36.97;;;20.30;;
20623;SDS011;10471;42.736;23.346;2023-02-22T07:47:40;33.07;;;18.17;;
20623;SDS011;10471;42.736;23.346;2023-02-22T07:50:05;28.30;;;15.53;;
20623;SDS011;10471;42.736;23.346;2023-02-22T07:52:31;23.27;;;13.47;;
20623;SDS011;10471;42.736;23.346;2023-02-22T07:54:56;23.00;;;13.17;;
20623;SDS011;10471;42.736;23.346;2023-02-22T07:57:21;36.17;;;18.13;;
20623;SDS011;10471;42.736;23.346;2023-02-22T07:59:47;28.17;;;14.20;;
20623;SDS011;10471;42.736;23.346;2023-02-22T08:02:14;24.47;;;14.60;;
20623;SDS011;10471;42.736;23.346;2023-02-22T08:04:41;24.03;;;14.77;;
20623;SDS011;10471;42.736;23.346;2023-02-22T08:07:06;28.27;;;14.90;;
20623;SDS011;10471;42.736;23.346;2023-02-22T08:09:31;25.23;;;13.43;;
20623;SDS011;10471;42.736;23.346;2023-02-22T08:11:57;24.93;;;14.20;;
20623;SDS011;10471;42.736;23.346;2023-02-22T08:14:22;28.67;;;14.10;;
20623;SDS011;10471;42.736;23.346;2023-02-22T08:16:47;25.37;;;13.40;;
20623;SDS011;10471;42.736;23.346;2023-02-22T08:19:13;28.23;;;14.57;;
20623;SDS011;10471;42.736;23.346;2023-02-22T08:21:38;24.37;;;14.80;;
20623;SDS011;10471;42.736;23.346;2023-02-22T08:24:04;29.17;;;14.17;;
20623;SDS011;10471;42.736;23.346;2023-02-22T08:26:29;25.13;;;14.97;;
20623;SDS011;10471;42.736;23.346;2023-02-22T08:28:55;26.97;;;14.20;;
20623;SDS011;10471;42.736;23.346;2023-02-22T08:31:20;25.20;;;13.97;;
20623;SDS011;10471;42.736;23.346;2023-02-22T08:33:46;28.97;;;15.87;;
20623;SDS011;10471;42.736;23.346;2023-02-22T08:36:13;28.50;;;16.43;;
20623;SDS011;10471;42.736;23.346;2023-02-22T08:38:39;30.07;;;16.73;;
20623;SDS011;10471;42.736;23.346;2023-02-22T08:41:05;32.17;;;17.00;;
20623;SDS011;10471;42.736;23.346;2023-02-22T08:43:30;33.00;;;17.40;;
20623;SDS011;10471;42.736;23.346;2023-02-22T08:45:56;29.03;;;17.03;;
20623;SDS011;10471;42.736;23.346;2023-02-22T08:48:21;29.97;;;17.03;;
20623;SDS011;10471;42.736;23.346;2023-02-22T08:50:47;28.10;;;15.50;;
20623;SDS011;10471;42.736;23.346;2023-02-22T08:53:13;29.57;;;15.10;;
20623;SDS011;10471;42.736;23.346;2023-02-22T08:55:40;27.37;;;15.00;;
20623;SDS011;10471;42.736;23.346;2023-02-22T08:58:06;31.43;;;14.50;;
20623;SDS011;10471;42.736;23.346;2023-02-22T09:00:36;31.97;;;14.40;;
20623;SDS011;10471;42.736;23.346;2023-02-22T09:03:04;21.63;;;13.17;;
20623;SDS011;10471;42.736;23.346;2023-02-22T09:05:32;23.60;;;11.60;;
20623;SDS011;10471;42.736;23.346;2023-02-22T09:07:57;19.67;;;11.73;;
20623;SDS011;10471;42.736;23.346;2023-02-22T09:10:24;19.57;;;11.80;;
20623;SDS011;10471;42.736;23.346;2023-02-22T09:12:51;25.70;;;11.57;;
20623;SDS011;10471;42.736;23.346;2023-02-22T09:15:19;25.53;;;12.10;;
20623;SDS011;10471;42.736;23.346;2023-02-22T09:17:45;16.83;;;10.27;;
20623;SDS011;10471;42.736;23.346;2023-02-22T09:20:11;21.60;;;9.47;;
20623;SDS011;10471;42.736;23.346;2023-02-22T09:22:38;27.07;;;11.67;;
20623;SDS011;10471;42.736;23.346;2023-02-22T09:25:04;17.90;;;9.87;;
20623;SDS011;10471;42.736;23.346;2023-02-22T09:27:31;22.53;;;10.37;;
20623;SDS011;10471;42.736;23.346;2023-02-22T09:29:56;19.03;;;9.10;;
20623;SDS011;10471;42.736;23.346;2023-02-22T09:32:22;20.90;;;10.20;;
20623;SDS011;10471;42.736;23.346;2023-02-22T09:34:51;19.83;;;10.20;;
20623;SDS011;10471;42.736;23.346;2023-02-22T09:37:17;24.23;;;9.47;;
20623;SDS011;10471;42.736;23.346;2023-02-22T09:39:43;19.87;;;9.90;;
20623;SDS011;10471;42.736;23.346;2023-02-22T09:42:16;13.53;;;7.77;;
20623;SDS011;10471;42.736;23.346;2023-02-22T09:47:51;11.40;;;7.53;;
20623;SDS011;10471;42.736;23.346;2023-02-22T09:50:25;9.67;;;5.90;;
20623;SDS011;10471;42.736;23.346;2023-02-22T09:53:01;14.30;;;5.97;;
20623;SDS011;10471;42.736;23.346;2023-02-22T09:58:09;10.00;;;5.90;;
20623;SDS011;10471;42.736;23.346;2023-02-22T10:00:43;13.17;;;5.57;;
20623;SDS011;10471;42.736;23.346;2023-02-22T10:05:50;4.80;;;3.07;;
20623;SDS011;10471;42.736;23.346;2023-02-22T10:08:25;5.30;;;2.90;;
20623;SDS011;10471;42.736;23.346;2023-02-22T10:11:03;5.03;;;3.07;;
20623;SDS011;10471;42.736;23.346;2023-02-22T10:14:05;6.77;;;3.30;;
20623;SDS011;10471;42.736;23.346;2023-02-22T10:19:29;7.83;;;4.43;;
20623;SDS011;10471;42.736;23.346;2023-02-22T10:22:17;11.63;;;4.10;;
20623;SDS011;10471;42.736;23.346;2023-02-22T10:25:00;6.30;;;4.50;;
20623;SDS011;10471;42.736;23.346;2023-02-22T10:27:31;7.43;;;3.00;;
20623;SDS011;10471;42.736;23.346;2023-02-22T10:30:36;6.73;;;3.30;;
20623;SDS011;10471;42.736;23.346;2023-02-22T10:33:04;4.70;;;3.20;;
20623;SDS011;10471;42.736;23.346;2023-02-22T10:35:33;4.43;;;3.40;;
20623;SDS011;10471;42.736;23.346;2023-02-22T10:38:11;5.87;;;3.63;;
20623;SDS011;10471;42.736;23.346;2023-02-22T10:40:42;6.60;;;3.77;;
20623;SDS011;10471;42.736;23.346;2023-02-22T10:43:11;5.23;;;3.70;;
20623;SDS011;10471;42.736;23.346;2023-02-22T10:45:37;5.53;;;3.67;;
20623;SDS011;10471;42.736;23.346;2023-02-22T10:48:07;4.33;;;2.80;;
20623;SDS011;10471;42.736;23.346;2023-02-22T10:50:37;7.33;;;3.73;;
20623;SDS011;10471;42.736;23.346;2023-02-22T10:53:06;6.67;;;3.20;;
20623;SDS011;10471;42.736;23.346;2023-02-22T10:55:33;5.07;;;3.43;;
20623;SDS011;10471;42.736;23.346;2023-02-22T10:58:02;6.60;;;3.57;;
20623;SDS011;10471;42.736;23.346;2023-02-22T11:00:35;7.50;;;3.97;;
20623;SDS011;10471;42.736;23.346;2023-02-22T11:03:04;8.00;;;3.90;;
20623;SDS011;10471;42.736;23.346;2023-02-22T11:05:41;7.70;;;3.40;;
20623;SDS011;10471;42.736;23.346;2023-02-22T11:08:27;7.87;;;3.37;;
20623;SDS011;10471;42.736;23.346;2023-02-22T11:11:17;4.97;;;2.80;;
20623;SDS011;10471;42.736;23.346;2023-02-22T11:13:49;5.47;;;2.93;;
20623;SDS011;10471;42.736;23.346;2023-02-22T11:16:27;7.77;;;3.23;;
20623;SDS011;10471;42.736;23.346;2023-02-22T11:18:59;7.07;;;4.10;;
20623;SDS011;10471;42.736;23.346;2023-02-22T11:21:26;8.67;;;4.13;;
20623;SDS011;10471;42.736;23.346;2023-02-22T11:24:02;7.80;;;3.67;;
20623;SDS011;10471;42.736;23.346;2023-02-22T11:26:45;8.73;;;4.00;;
20623;SDS011;10471;42.736;23.346;2023-02-22T11:29:22;6.80;;;3.60;;
20623;SDS011;10471;42.736;23.346;2023-02-22T11:31:51;6.07;;;3.77;;
20623;SDS011;10471;42.736;23.346;2023-02-22T11:34:28;5.83;;;3.50;;
20623;SDS011;10471;42.736;23.346;2023-02-22T11:37:14;8.97;;;3.47;;
20623;SDS011;10471;42.736;23.346;2023-02-22T11:39:39;6.40;;;3.87;;
20623;SDS011;10471;42.736;23.346;2023-02-22T11:47:58;8.93;;;4.03;;
20623;SDS011;10471;42.736;23.346;2023-02-22T11:50:26;5.03;;;3.40;;
20623;SDS011;10471;42.736;23.346;2023-02-22T12:06:20;5.27;;;3.10;;
20623;SDS011;10471;42.736;23.346;2023-02-22T12:15:11;3.83;;;3.07;;
20623;SDS011;10471;42.736;23.346;2023-02-22T12:17:45;10.20;;;5.10;;
20623;SDS011;10471;42.736;23.346;2023-02-22T12:20:50;4.70;;;3.17;;
20623;SDS011;10471;42.736;23.346;2023-02-22T12:23:21;8.00;;;3.63;;
20623;SDS011;10471;42.736;23.346;2023-02-22T12:28:42;7.43;;;4.00;;
20623;SDS011;10471;42.736;23.346;2023-02-22T12:36:32;4.47;;;2.70;;
20623;SDS011;10471;42.736;23.346;2023-02-22T12:39:03;3.93;;;2.70;;
20623;SDS011;10471;42.736;23.346;2023-02-22T12:41:55;3.83;;;2.57;;
20623;SDS011;10471;42.736;23.346;2023-02-22T12:44:24;4.10;;;2.60;;
20623;SDS011;10471;42.736;23.346;2023-02-22T12:46:56;6.30;;;2.97;;
20623;SDS011;10471;42.736;23.346;2023-02-22T12:52:43;8.27;;;4.13;;
20623;SDS011;10471;42.736;23.346;2023-02-22T12:55:17;4.77;;;3.00;;
20623;SDS011;10471;42.736;23.346;2023-02-22T12:57:50;6.20;;;2.40;;
20623;SDS011;10471;42.736;23.346;2023-02-22T13:05:46;7.13;;;3.93;;
20623;SDS011;10471;42.736;23.346;2023-02-22T13:08:22;6.13;;;3.00;;
20623;SDS011;10471;42.736;23.346;2023-02-22T13:11:12;7.17;;;2.60;;
20623;SDS011;10471;42.736;23.346;2023-02-22T13:16:48;3.80;;;2.00;;
20623;SDS011;10471;42.736;23.346;2023-02-22T13:19:25;2.60;;;1.80;;
20623;SDS011;10471;42.736;23.346;2023-02-22T13:22:13;3.40;;;2.60;;
20623;SDS011;10471;42.736;23.346;2023-02-22T13:24:58;4.13;;;2.73;;
20623;SDS011;10471;42.736;23.346;2023-02-22T13:30:00;3.77;;;2.70;;
20623;SDS011;10471;42.736;23.346;2023-02-22T13:43:23;9.30;;;3.53;;
20623;SDS011;10471;42.736;23.346;2023-02-22T13:46:01;6.07;;;2.90;;
20623;SDS011;10471;42.736;23.346;2023-02-22T13:54:21;4.43;;;2.57;;
20623;SDS011;10471;42.736;23.346;2023-02-22T13:56:58;4.93;;;2.20;;
20623;SDS011;10471;42.736;23.346;2023-02-22T14:01:59;5.13;;;2.47;;
20623;SDS011;10471;42.736;23.346;2023-02-22T14:17:34;4.23;;;2.70;;
20623;SDS011;10471;42.736;23.346;2023-02-22T14:22:43;2.73;;;1.87;;
20623;SDS011;10471;42.736;23.346;2023-02-22T14:28:03;3.93;;;2.30;;
20623;SDS011;10471;42.736;23.346;2023-02-22T14:31:02;4.70;;;1.97;;
20623;SDS011;10471;42.736;23.346;2023-02-22T14:33:49;6.10;;;2.10;;
20623;SDS011;10471;42.736;23.346;2023-02-22T14:36:19;3.20;;;2.00;;
20623;SDS011;10471;42.736;23.346;2023-02-22T14:38:47;3.63;;;2.00;;
20623;SDS011;10471;42.736;23.346;2023-02-22T14:41:18;6.73;;;2.63;;
20623;SDS011;10471;42.736;23.346;2023-02-22T14:43:50;4.27;;;2.90;;
20623;SDS011;10471;42.736;23.346;2023-02-22T14:46:20;8.30;;;2.90;;
20623;SDS011;10471;42.736;23.346;2023-02-22T14:48:50;5.87;;;2.97;;
20623;SDS011;10471;42.736;23.346;2023-02-22T14:54:06;5.97;;;3.37;;
20623;SDS011;10471;42.736;23.346;2023-02-22T14:56:39;6.10;;;3.50;;
20623;SDS011;10471;42.736;23.346;2023-02-22T14:59:20;5.80;;;3.73;;
20623;SDS011;10471;42.736;23.346;2023-02-22T15:01:47;6.20;;;3.60;;
20623;SDS011;10471;42.736;23.346;2023-02-22T15:06:55;9.53;;;4.40;;
20623;SDS011;10471;42.736;23.346;2023-02-22T15:09:23;5.03;;;3.60;;
20623;SDS011;10471;42.736;23.346;2023-02-22T15:14:18;7.43;;;4.80;;
20623;SDS011;10471;42.736;23.346;2023-02-22T15:16:48;7.27;;;4.23;;
20623;SDS011;10471;42.736;23.346;2023-02-22T15:19:19;5.40;;;4.00;;
20623;SDS011;10471;42.736;23.346;2023-02-22T15:21:53;6.73;;;4.53;;
20623;SDS011;10471;42.736;23.346;2023-02-22T15:24:24;8.27;;;4.20;;
20623;SDS011;10471;42.736;23.346;2023-02-22T15:26:52;7.23;;;4.73;;
20623;SDS011;10471;42.736;23.346;2023-02-22T15:29:30;8.10;;;4.40;;
20623;SDS011;10471;42.736;23.346;2023-02-22T15:32:00;9.47;;;4.80;;
20623;SDS011;10471;42.736;23.346;2023-02-22T15:36:53;10.03;;;4.50;;
20623;SDS011;10471;42.736;23.346;2023-02-22T15:41:49;8.00;;;6.03;;
20623;SDS011;10471;42.736;23.346;2023-02-22T15:44:26;11.03;;;7.07;;
20623;SDS011;10471;42.736;23.346;2023-02-22T15:46:52;11.37;;;6.87;;
20623;SDS011;10471;42.736;23.346;2023-02-22T15:49:20;11.43;;;7.70;;
20623;SDS011;10471;42.736;23.346;2023-02-22T15:51:48;11.13;;;8.00;;
20623;SDS011;10471;42.736;23.346;2023-02-22T15:54:26;15.47;;;10.13;;
20623;SDS011;10471;42.736;23.346;2023-02-22T15:56:52;14.33;;;8.10;;
20623;SDS011;10471;42.736;23.346;2023-02-22T15:59:21;17.53;;;10.17;;
20623;SDS011;10471;42.736;23.346;2023-02-22T16:01:53;16.57;;;9.47;;
20623;SDS011;10471;42.736;23.346;2023-02-22T16:04:22;17.27;;;9.77;;
20623;SDS011;10471;42.736;23.346;2023-02-22T16:06:50;14.63;;;9.27;;
20623;SDS011;10471;42.736;23.346;2023-02-22T16:09:26;17.70;;;11.63;;
20623;SDS011;10471;42.736;23.346;2023-02-22T16:12:22;22.53;;;12.77;;
20623;SDS011;10471;42.736;23.346;2023-02-22T16:14:49;16.00;;;11.10;;
20623;SDS011;10471;42.736;23.346;2023-02-22T16:19:53;19.03;;;11.77;;
20623;SDS011;10471;42.736;23.346;2023-02-22T16:22:32;28.87;;;18.93;;
20623;SDS011;10471;42.736;23.346;2023-02-22T16:27:43;30.30;;;13.20;;
20623;SDS011;10471;42.736;23.346;2023-02-22T16:32:48;16.93;;;10.23;;
20623;SDS011;10471;42.736;23.346;2023-02-22T16:35:14;20.43;;;12.93;;
20623;SDS011;10471;42.736;23.346;2023-02-22T16:37:46;29.70;;;20.10;;
20623;SDS011;10471;42.736;23.346;2023-02-22T16:40:18;22.63;;;14.23;;
20623;SDS011;10471;42.736;23.346;2023-02-22T16:42:47;23.10;;;12.93;;
20623;SDS011;10471;42.736;23.346;2023-02-22T16:45:14;31.73;;;14.50;;
20623;SDS011;10471;42.736;23.346;2023-02-22T16:47:41;31.00;;;13.57;;
20623;SDS011;10471;42.736;23.346;2023-02-22T16:50:07;45.73;;;21.30;;
20623;SDS011;10471;42.736;23.346;2023-02-22T16:52:33;39.13;;;19.33;;
20623;SDS011;10471;42.736;23.346;2023-02-22T16:54:58;27.80;;;16.67;;
20623;SDS011;10471;42.736;23.346;2023-02-22T16:57:25;33.87;;;21.73;;